createdAt,value
2022-12-22T00:01:29.201Z,8.47
2022-12-22T00:04:34.750Z,9.03
2022-12-22T00:07:38.693Z,10.53
2022-12-22T00:10:42.872Z,10.33
2022-12-22T00:13:46.871Z,8.43
2022-12-22T00:16:52.748Z,8.47
2022-12-22T00:19:58.247Z,7.73
2022-12-22T00:23:02.322Z,8.40
2022-12-22T00:26:06.888Z,8.57
2022-12-22T00:29:10.890Z,7.63
2022-12-22T00:32:14.855Z,7.37
2022-12-22T00:35:21.070Z,6.63
2022-12-22T00:38:32.279Z,6.80
2022-12-22T00:41:36.185Z,6.50
2022-12-22T00:44:40.041Z,6.00
2022-12-22T00:47:46.831Z,6.60
2022-12-22T00:50:54.052Z,6.03
2022-12-22T00:53:58.373Z,8.00
2022-12-22T00:57:02.922Z,6.60
2022-12-22T01:00:08.652Z,6.60
2022-12-22T01:03:12.743Z,6.37
2022-12-22T01:06:20.332Z,6.83
2022-12-22T01:09:24.530Z,6.47
2022-12-22T01:12:33.059Z,8.00
2022-12-22T01:15:38.905Z,8.37
2022-12-22T01:18:42.869Z,7.30
2022-12-22T01:21:48.210Z,9.83
2022-12-22T01:24:52.223Z,7.07
2022-12-22T01:27:56.855Z,6.73
2022-12-22T01:31:01.411Z,7.87
2022-12-22T01:34:05.302Z,6.63
2022-12-22T01:37:10.666Z,7.47
2022-12-22T01:40:14.724Z,9.00
2022-12-22T01:43:18.772Z,8.40
2022-12-22T01:46:40.591Z,10.07
2022-12-22T01:49:48.729Z,9.10
2022-12-22T01:52:55.094Z,10.33
2022-12-22T01:55:59.043Z,8.10
2022-12-22T01:59:07.206Z,12.60
2022-12-22T02:02:10.946Z,11.23
2022-12-22T02:05:18.467Z,8.33
2022-12-22T02:08:35.574Z,8.23
2022-12-22T02:11:48.523Z,11.13
2022-12-22T02:15:01.998Z,6.80
2022-12-22T02:18:14.491Z,9.33
2022-12-22T02:21:23.516Z,7.67
2022-12-22T02:24:39.838Z,7.50
2022-12-22T02:27:46.562Z,9.80
2022-12-22T02:30:52.615Z,6.07
2022-12-22T02:33:56.952Z,5.63
2022-12-22T02:37:08.685Z,6.67
2022-12-22T02:40:20.598Z,6.50
2022-12-22T02:43:37.358Z,7.67
2022-12-22T02:46:47.708Z,5.70
2022-12-22T02:49:59.808Z,9.10
2022-12-22T02:53:06.183Z,5.97
2022-12-22T02:56:17.445Z,6.70
2022-12-22T02:59:23.343Z,7.53
2022-12-22T03:02:27.508Z,10.43
2022-12-22T03:05:31.892Z,13.77
2022-12-22T03:08:35.962Z,11.23
2022-12-22T03:11:39.837Z,9.10
2022-12-22T03:14:45.119Z,10.03
2022-12-22T03:17:48.930Z,7.80
2022-12-22T03:20:52.900Z,9.37
2022-12-22T03:23:57.216Z,9.60
2022-12-22T03:26:43.816Z,6.73
2022-12-22T03:29:31.537Z,6.97
2022-12-22T03:32:18.035Z,6.60
2022-12-22T03:35:04.317Z,7.50
2022-12-22T03:37:50.632Z,8.27
2022-12-22T03:40:36.992Z,6.20
2022-12-22T03:43:40.684Z,6.53
2022-12-22T03:46:31.675Z,7.40
2022-12-22T03:49:19.384Z,8.07
2022-12-22T03:52:05.993Z,6.93
2022-12-22T03:54:52.540Z,6.93
2022-12-22T03:57:38.889Z,5.20
2022-12-22T04:00:25.349Z,5.53
2022-12-22T04:03:14.971Z,5.47
2022-12-22T04:06:01.821Z,6.10
2022-12-22T04:08:48.470Z,6.47
2022-12-22T04:11:52.166Z,5.70
2022-12-22T04:14:39.093Z,6.00
2022-12-22T04:17:25.734Z,6.17
2022-12-22T04:20:13.911Z,5.10
2022-12-22T04:23:00.654Z,5.10
2022-12-22T04:25:47.285Z,5.30
2022-12-22T04:28:33.698Z,5.57
2022-12-22T04:31:20.351Z,6.13
2022-12-22T04:34:06.666Z,6.80
2022-12-22T04:36:54.771Z,5.10
2022-12-22T04:39:41.021Z,5.27
2022-12-22T04:42:27.405Z,7.97
2022-12-22T04:45:13.898Z,5.20
2022-12-22T04:48:00.420Z,6.90
2022-12-22T04:50:46.687Z,4.10
2022-12-22T04:53:34.540Z,5.53
2022-12-22T04:56:21.013Z,4.43
2022-12-22T04:59:07.458Z,4.90
2022-12-22T05:01:54.007Z,4.53
2022-12-22T05:04:40.220Z,4.10
2022-12-22T05:07:26.620Z,3.27
2022-12-22T05:10:14.871Z,4.13
2022-12-22T05:13:01.353Z,3.80
2022-12-22T05:15:47.562Z,4.90
2022-12-22T05:18:34.451Z,4.07
2022-12-22T05:21:23.297Z,7.77
2022-12-22T05:24:09.914Z,4.13
2022-12-22T05:26:57.517Z,3.70
2022-12-22T05:29:43.938Z,6.57
2022-12-22T05:32:30.262Z,3.93
2022-12-22T05:35:16.809Z,3.90
2022-12-22T05:38:03.466Z,7.10
2022-12-22T05:40:50.183Z,3.37
2022-12-22T05:43:38.485Z,3.47
2022-12-22T05:46:25.200Z,5.73
2022-12-22T05:49:11.556Z,4.20
2022-12-22T05:51:57.747Z,5.20
2022-12-22T05:54:44.254Z,6.20
2022-12-22T05:57:30.577Z,5.30
2022-12-22T06:00:19.812Z,4.17
2022-12-22T06:03:06.475Z,3.73
2022-12-22T06:05:53.185Z,4.10
2022-12-22T06:08:39.383Z,4.00
2022-12-22T06:11:25.738Z,4.07
2022-12-22T06:14:12.139Z,3.80
2022-12-22T06:17:00.150Z,4.20
2022-12-22T06:19:46.683Z,4.73
2022-12-22T06:22:34.030Z,5.70
2022-12-22T06:25:20.273Z,4.93
2022-12-22T06:28:06.778Z,4.23
2022-12-22T06:30:53.820Z,4.03
2022-12-22T06:33:41.714Z,5.10
2022-12-22T06:36:28.398Z,3.93
2022-12-22T06:39:15.409Z,3.03
2022-12-22T06:42:18.852Z,3.37
2022-12-22T06:45:06.214Z,3.40
2022-12-22T06:47:52.930Z,4.27
2022-12-22T06:50:40.768Z,2.77
2022-12-22T06:53:27.418Z,4.30
2022-12-22T06:56:13.647Z,4.47
2022-12-22T06:58:59.948Z,3.27
2022-12-22T07:01:46.648Z,3.90
2022-12-22T07:04:33.511Z,4.70
2022-12-22T07:07:21.518Z,5.13
2022-12-22T07:10:08.743Z,5.90
2022-12-22T07:12:55.336Z,6.83
2022-12-22T07:15:41.868Z,7.93
2022-12-22T07:18:29.144Z,6.47
2022-12-22T07:21:16.236Z,8.60
2022-12-22T07:24:04.091Z,7.30
2022-12-22T07:26:50.500Z,4.17
2022-12-22T07:29:37.124Z,5.53
2022-12-22T07:32:23.603Z,8.57
2022-12-22T07:35:10.290Z,4.77
2022-12-22T07:37:56.590Z,3.37
2022-12-22T07:40:49.354Z,4.43
2022-12-22T07:43:37.482Z,2.80
2022-12-22T07:46:24.530Z,2.90
2022-12-22T07:49:29.706Z,2.70
2022-12-22T07:52:16.273Z,3.27
2022-12-22T07:55:02.680Z,5.63
2022-12-22T07:57:50.619Z,3.00
2022-12-22T08:00:36.986Z,4.07
2022-12-22T08:03:23.407Z,2.30
2022-12-22T08:06:10.440Z,1.97
2022-12-22T08:08:57.081Z,3.63
2022-12-22T08:11:43.488Z,2.37
2022-12-22T08:14:31.433Z,3.90
2022-12-22T08:17:17.892Z,2.10
2022-12-22T08:20:05.150Z,2.73
2022-12-22T08:22:51.717Z,2.40
2022-12-22T08:25:38.255Z,3.97
2022-12-22T08:28:25.101Z,2.87
2022-12-22T08:31:13.004Z,3.10
2022-12-22T08:34:03.235Z,2.80
2022-12-22T08:36:52.443Z,2.37
2022-12-22T08:39:41.253Z,4.87
2022-12-22T08:42:28.511Z,3.63
2022-12-22T08:45:14.832Z,5.67
2022-12-22T08:48:02.424Z,4.97
2022-12-22T08:50:49.056Z,3.00
2022-12-22T08:54:03.975Z,3.50
2022-12-22T08:56:41.957Z,4.43
2022-12-22T08:59:28.638Z,3.43
2022-12-22T09:02:15.260Z,4.67
2022-12-22T09:05:03.014Z,5.13
2022-12-22T09:07:49.501Z,5.67
2022-12-22T09:10:35.791Z,17.70
2022-12-22T09:13:22.186Z,7.97
2022-12-22T09:16:09.843Z,9.27
2022-12-22T09:18:56.680Z,10.60
2022-12-22T09:21:44.993Z,8.57
2022-12-22T09:24:31.467Z,8.73
2022-12-22T09:27:17.987Z,5.83
2022-12-22T09:30:05.181Z,4.83
2022-12-22T09:32:51.682Z,5.33
2022-12-22T09:35:41.967Z,4.13
2022-12-22T09:38:30.157Z,4.17
2022-12-22T09:41:19.775Z,4.67
2022-12-22T09:44:13.740Z,6.17
2022-12-22T09:47:02.891Z,4.30
2022-12-22T09:49:50.075Z,9.37
2022-12-22T09:52:45.396Z,4.73
2022-12-22T09:55:40.907Z,5.17
2022-12-22T09:58:29.639Z,4.37
2022-12-22T10:01:39.940Z,9.67
2022-12-22T10:04:39.906Z,5.40
2022-12-22T10:07:32.307Z,6.60
2022-12-22T10:10:24.992Z,6.20
2022-12-22T10:13:19.017Z,4.77
2022-12-22T10:16:19.465Z,13.67
2022-12-22T10:19:10.579Z,5.43
2022-12-22T10:22:20.212Z,6.83
2022-12-22T10:25:08.226Z,4.73
2022-12-22T10:27:57.148Z,5.87
2022-12-22T10:30:45.025Z,4.53
2022-12-22T10:33:37.807Z,5.83
2022-12-22T10:36:31.451Z,5.63
2022-12-22T10:39:22.065Z,5.00
2022-12-22T10:42:10.865Z,4.10
2022-12-22T10:44:58.988Z,4.17
2022-12-22T10:47:50.150Z,5.07
2022-12-22T10:50:46.218Z,3.07
2022-12-22T10:53:48.309Z,2.60
2022-12-22T10:56:35.866Z,4.60
2022-12-22T10:59:23.961Z,2.77
2022-12-22T11:02:37.881Z,4.90
2022-12-22T11:05:26.111Z,4.87
2022-12-22T11:08:18.499Z,5.03
2022-12-22T11:11:08.277Z,3.73
2022-12-22T11:14:03.695Z,3.90
2022-12-22T11:16:54.209Z,3.57
2022-12-22T11:19:57.216Z,3.10
2022-12-22T11:22:54.031Z,3.57
2022-12-22T11:25:51.833Z,4.27
2022-12-22T11:28:55.670Z,29.50
2022-12-22T11:32:01.305Z,5.03
2022-12-22T11:34:57.023Z,3.73
2022-12-22T11:37:51.248Z,4.80
2022-12-22T11:40:43.301Z,5.03
2022-12-22T11:43:37.188Z,3.30
2022-12-22T11:46:32.079Z,3.80
2022-12-22T11:49:38.777Z,5.70
2022-12-22T11:52:46.115Z,3.67
2022-12-22T11:55:37.932Z,2.27
2022-12-22T11:58:49.720Z,3.07
2022-12-22T12:01:54.935Z,2.20
2022-12-22T12:05:09.966Z,3.00
2022-12-22T12:08:03.571Z,2.70
2022-12-22T12:10:55.047Z,8.90
2022-12-22T12:13:50.762Z,9.63
2022-12-22T12:16:43.574Z,7.77
2022-12-22T12:20:02.594Z,3.70
2022-12-22T12:23:00.402Z,9.67
2022-12-22T12:25:55.786Z,3.30
2022-12-22T12:28:53.466Z,3.23
2022-12-22T12:31:44.220Z,2.03
2022-12-22T12:34:34.751Z,1.53
2022-12-22T12:37:26.793Z,2.47
2022-12-22T12:40:29.778Z,2.23
2022-12-22T12:43:18.451Z,3.97
2022-12-22T12:46:47.505Z,6.77
2022-12-22T12:50:01.763Z,4.83
2022-12-22T12:53:15.786Z,6.83
2022-12-22T12:56:07.335Z,7.40
2022-12-22T12:58:57.923Z,6.07
2022-12-22T13:02:00.287Z,10.37
2022-12-22T13:05:27.811Z,7.03
2022-12-22T13:08:21.037Z,6.33
2022-12-22T13:12:10.503Z,5.07
2022-12-22T13:14:58.684Z,5.60
2022-12-22T13:17:50.639Z,3.20
2022-12-22T13:20:38.244Z,3.87
2022-12-22T13:23:25.236Z,6.00
2022-12-22T13:26:14.968Z,5.03
2022-12-22T13:29:03.983Z,3.43
2022-12-22T13:31:55.647Z,3.10
2022-12-22T13:35:20.658Z,2.93
2022-12-22T13:37:54.563Z,73.60
2022-12-22T13:40:43.155Z,4.90
2022-12-22T13:43:32.167Z,3.73
2022-12-22T13:46:19.068Z,2.83
2022-12-22T13:49:09.521Z,2.97
2022-12-22T13:52:00.298Z,2.50
2022-12-22T13:54:51.254Z,5.87
2022-12-22T13:57:40.249Z,2.73
2022-12-22T14:00:28.089Z,4.97
2022-12-22T14:03:41.709Z,16.33
2022-12-22T14:06:31.341Z,5.00
2022-12-22T14:09:20.054Z,5.07
2022-12-22T14:12:13.752Z,3.83
2022-12-22T14:15:03.109Z,3.87
2022-12-22T14:17:53.153Z,4.87
2022-12-22T14:20:40.574Z,6.10
2022-12-22T14:23:31.854Z,4.80
2022-12-22T14:26:21.723Z,5.57
2022-12-22T14:29:14.826Z,3.30
2022-12-22T14:32:03.773Z,6.27
2022-12-22T14:34:55.130Z,25.90
2022-12-22T14:37:41.879Z,5.73
2022-12-22T14:40:34.904Z,5.43
2022-12-22T14:43:28.316Z,5.00
2022-12-22T14:46:14.672Z,4.70
2022-12-22T14:49:01.046Z,7.53
2022-12-22T14:52:00.808Z,6.07
2022-12-22T14:54:48.929Z,6.68
2022-12-22T14:57:40.329Z,5.77
2022-12-22T15:00:36.458Z,6.67
2022-12-22T15:03:33.804Z,6.93
2022-12-22T15:06:25.208Z,5.90
2022-12-22T15:12:33.679Z,8.77
2022-12-22T15:15:23.040Z,9.17
2022-12-22T15:18:14.559Z,9.13
2022-12-22T15:21:01.080Z,7.80
2022-12-22T15:23:48.258Z,7.33
2022-12-22T15:26:37.916Z,8.10
2022-12-22T15:29:24.668Z,8.03
2022-12-22T15:32:12.957Z,8.73
2022-12-22T15:35:01.318Z,8.30
2022-12-22T15:37:47.983Z,7.77
2022-12-22T15:40:34.346Z,7.80
2022-12-22T15:46:27.602Z,7.57
2022-12-22T15:49:19.583Z,7.47
2022-12-22T15:52:07.324Z,9.13
2022-12-22T15:54:54.799Z,8.63
2022-12-22T15:57:41.034Z,9.43
2022-12-22T16:00:27.418Z,7.80
2022-12-22T16:03:14.277Z,6.40
2022-12-22T16:06:02.416Z,8.33
2022-12-22T16:08:52.492Z,11.03
2022-12-22T16:11:39.795Z,7.83
2022-12-22T16:14:26.933Z,16.93
2022-12-22T16:17:19.151Z,18.77
2022-12-22T16:20:06.907Z,11.50
2022-12-22T16:22:54.827Z,10.93
2022-12-22T16:25:41.639Z,10.90
2022-12-22T16:28:28.372Z,12.53
2022-12-22T16:31:18.742Z,23.43
2022-12-22T16:34:05.293Z,24.93
2022-12-22T16:36:51.671Z,18.83
2022-12-22T16:39:39.421Z,27.00
2022-12-22T16:45:34.086Z,28.33
2022-12-22T16:48:29.689Z,20.00
2022-12-22T16:51:20.375Z,16.67
2022-12-22T16:54:07.046Z,8.23
2022-12-22T16:56:54.559Z,11.33
2022-12-22T16:59:41.243Z,8.37
2022-12-22T17:02:30.278Z,10.43
2022-12-22T17:05:25.837Z,10.10
2022-12-22T17:08:20.595Z,10.07
2022-12-22T17:11:11.404Z,9.07
2022-12-22T17:14:06.465Z,7.70
2022-12-22T17:16:53.379Z,7.73
2022-12-22T17:19:40.053Z,9.27
2022-12-22T17:22:28.731Z,8.63
2022-12-22T17:25:19.158Z,6.60
2022-12-22T17:28:05.621Z,9.17
2022-12-22T17:30:53.794Z,9.63
2022-12-22T17:33:40.464Z,7.33
2022-12-22T17:36:34.142Z,6.70
2022-12-22T17:39:22.083Z,7.33
2022-12-22T17:42:17.882Z,8.13
2022-12-22T17:45:04.899Z,6.10
2022-12-22T17:47:52.477Z,8.20
2022-12-22T17:50:39.730Z,7.03
2022-12-22T17:53:26.000Z,8.47
2022-12-22T17:56:16.181Z,7.33
2022-12-22T17:59:02.393Z,9.13
2022-12-22T18:01:48.819Z,8.90
2022-12-22T18:04:36.965Z,12.20
2022-12-22T18:07:24.828Z,10.77
2022-12-22T18:10:24.043Z,11.37
2022-12-22T18:13:17.050Z,9.07
2022-12-22T18:16:03.599Z,14.53
2022-12-22T18:18:50.247Z,12.37
2022-12-22T18:21:38.339Z,12.87
2022-12-22T18:24:25.674Z,10.40
2022-12-22T18:27:13.290Z,11.23
2022-12-22T18:30:00.395Z,12.63
2022-12-22T18:32:47.590Z,13.57
2022-12-22T18:35:34.266Z,11.73
2022-12-22T18:38:27.113Z,10.50
2022-12-22T18:41:18.746Z,11.70
2022-12-22T18:44:05.516Z,11.90
2022-12-22T18:46:53.058Z,12.43
2022-12-22T18:49:40.313Z,16.37
2022-12-22T18:52:27.509Z,13.80
2022-12-22T18:55:19.469Z,12.23
2022-12-22T18:58:05.963Z,14.77
2022-12-22T19:00:53.247Z,16.47
2022-12-22T19:03:39.525Z,17.57
2022-12-22T19:06:25.979Z,13.97
2022-12-22T19:09:14.746Z,10.40
2022-12-22T19:12:02.405Z,12.13
2022-12-22T19:14:51.840Z,14.00
2022-12-22T19:17:38.440Z,19.50
2022-12-22T19:20:26.674Z,14.80
2022-12-22T19:23:15.571Z,15.87
2022-12-22T19:26:08.322Z,20.07
2022-12-22T19:29:00.312Z,14.30
2022-12-22T19:31:46.739Z,12.53
2022-12-22T19:34:33.657Z,15.63
2022-12-22T19:37:20.447Z,14.13
2022-12-22T19:40:08.237Z,16.33
2022-12-22T19:42:56.697Z,15.93
2022-12-22T19:45:44.529Z,19.43
2022-12-22T19:48:31.021Z,22.83
2022-12-22T19:51:17.971Z,14.67
2022-12-22T19:54:05.072Z,17.00
2022-12-22T19:56:54.229Z,16.90
2022-12-22T19:59:42.745Z,14.33
2022-12-22T20:02:33.251Z,13.20
2022-12-22T20:05:31.604Z,17.33
2022-12-22T20:08:18.377Z,21.93
2022-12-22T20:11:05.375Z,22.57
2022-12-22T20:13:51.877Z,16.70
2022-12-22T20:16:38.698Z,19.53
2022-12-22T20:19:26.151Z,17.60
2022-12-22T20:22:16.284Z,18.37
2022-12-22T20:25:02.816Z,18.23
2022-12-22T20:27:49.990Z,18.00
2022-12-22T20:30:36.338Z,20.23
2022-12-22T20:33:24.648Z,20.50
2022-12-22T20:36:19.817Z,32.67
2022-12-22T20:39:13.026Z,41.03
2022-12-22T20:41:59.543Z,48.07
2022-12-22T20:45:04.079Z,41.70
2022-12-22T20:47:52.219Z,26.67
2022-12-22T20:50:39.022Z,32.43
2022-12-22T20:53:27.109Z,38.70
2022-12-22T20:56:21.556Z,26.80
2022-12-22T20:59:15.240Z,34.17
2022-12-22T21:02:01.998Z,25.57
2022-12-22T21:04:48.695Z,20.73
2022-12-22T21:07:34.886Z,19.10
2022-12-22T21:10:26.189Z,27.57
2022-12-22T21:13:13.614Z,19.60
2022-12-22T21:16:00.244Z,19.53
2022-12-22T21:18:46.794Z,17.57
2022-12-22T21:21:33.641Z,17.87
2022-12-22T21:24:20.311Z,21.47
2022-12-22T21:27:08.085Z,20.07
2022-12-22T21:29:54.693Z,20.20
2022-12-22T21:32:41.144Z,23.40
2022-12-22T21:35:31.955Z,17.13
2022-12-22T21:38:20.517Z,16.30
2022-12-22T21:41:07.182Z,15.10
2022-12-22T21:43:54.886Z,17.40
2022-12-22T21:46:42.815Z,16.63
2022-12-22T21:49:30.914Z,16.93
2022-12-22T21:52:17.287Z,18.43
2022-12-22T21:55:05.202Z,19.03
2022-12-22T21:57:51.903Z,17.90
2022-12-22T22:00:42.238Z,17.93
2022-12-22T22:03:29.672Z,22.63
2022-12-22T22:06:16.634Z,22.50
2022-12-22T22:09:04.681Z,19.43
2022-12-22T22:12:08.400Z,18.90
2022-12-22T22:14:55.053Z,19.03
2022-12-22T22:17:43.720Z,16.47
2022-12-22T22:20:32.787Z,15.00
2022-12-22T22:23:19.268Z,15.53
2022-12-22T22:26:06.957Z,14.47
2022-12-22T22:28:54.239Z,14.40
2022-12-22T22:31:41.842Z,14.17
2022-12-22T22:34:29.629Z,16.57
2022-12-22T22:37:16.298Z,16.80
2022-12-22T22:40:03.065Z,14.73
2022-12-22T22:42:49.886Z,14.97
2022-12-22T22:45:39.083Z,13.37
2022-12-22T22:48:25.858Z,19.27
2022-12-22T22:51:13.787Z,13.17
2022-12-22T22:54:00.254Z,14.67
2022-12-22T22:56:46.642Z,12.43
2022-12-22T22:59:33.481Z,13.53
2022-12-22T23:02:20.186Z,12.87
2022-12-22T23:05:07.394Z,14.33
2022-12-22T23:07:55.249Z,11.53
2022-12-22T23:10:48.624Z,15.50
2022-12-22T23:13:34.946Z,12.30
2022-12-22T23:16:23.844Z,13.63
2022-12-22T23:19:10.539Z,9.30
2022-12-22T23:21:56.746Z,12.70
2022-12-22T23:24:44.368Z,10.33
2022-12-22T23:27:31.505Z,12.67
2022-12-22T23:30:18.326Z,12.70
2022-12-22T23:33:04.923Z,11.97
2022-12-22T23:35:52.513Z,12.37
2022-12-22T23:38:38.965Z,11.80
2022-12-22T23:41:26.673Z,8.67
2022-12-22T23:44:13.397Z,10.57
2022-12-22T23:46:59.736Z,9.70
2022-12-22T23:49:46.043Z,13.23
2022-12-22T23:52:32.522Z,8.23
2022-12-22T23:55:19.373Z,11.87
2022-12-22T23:58:07.386Z,11.73
